الصفحة الرئيسية
METAR-TAF:

METAR-TAF

مطار :

ماتام, السنغال

دائرة عرض: 15-39N, خط طول: 013-15W, ارتفاع: 15 متر

مراقبة الطقس الحالي

تاريخ ووقت الإصدار 1ساعة و 19 دقيقة قبل الساعة 07:00UTC
ريح 4 عقدة من الشرق
درجة الحرارة 27°درجة مئوية
الرطوبة 30%
ضغط 1012 hPa
الرؤية 10 كم أو أكثر
الغيوم لا تقل 1500 م ولا وجود لمزنة ركامية السحاب الأسود

METAR: GOSM 160700Z 08004KT CAVOK 27/08 Q1012

زمن: 08:19 (08:19 UTC)


TAF: مفقودة

أرصاد الطقس والتوقعات من أكثر من 4000 مطار (تقارير الطقس للمطار METAR والتنبؤ بالطقس بالمطارTAF).

المحطات المتاحة هي النقط الصفراء والحمراء على الخريطة.

حرك المؤشر فوق النقطة لمعرفة اسم المحطة.

ثم انقر لمعرفة أرصاد وتوقعات الطقس.

لتغيير الخارطة: اضغط على الأزرار الخضراء مع رمز الصليب الأسود للتكبير. على الزر الأخضر مع شرطة للتصغير، أو على الأسهم الخضراء للخرائط المجاورة.


METAR-TAF: